Main page
METAR-TAF:

METAR-TAF

Airports :

Culdrose, England

RNAS Culdrose (HMS Seahawk)

latitude: 50-05N, longitude: 005-15W, elevation: 78 m

Current weather observation

The report was made 56 minutes ago, at 09:50 UTC
Wind 6 kt from the East/Northeast
Temperature 7°C
Humidity 93%
Pressure 1030 hPa
Visibility 10 km or more
Few clouds at a height of 700 ft

METAR: EGDR 180950Z 06006KT 9999 FEW007 07/06 Q1030 BLU NOSIG

Time: 10:46 (10:46 UTC)

Forecast

The report was made 2 hours and 41 minutes ago, at 08:05 UTC
Forecast valid from 18 at 09 UTC to 18 at 18 UTC
Wind 5 kt from the Northeast
Visibility 10 km or more
Few clouds at a height of 1500 ft
Probability 30% :
Temporary
from 18 at 16 UTC to 18 at 18 UTC
Visibility: 7000 m
haze

TAF: EGDR 180805Z 1809/1818 05005KT 9999 FEW015 PROB30 TEMPO 1816/1818 7000 HZ

Weather observations and forecasts of more than 4000 airports (METAR and TAF reports).

The available stations are represented by yellow and red dots on the map.

Hover mouse over dot to see the name of the station.

Then click to see weather observations and forecasts.

To change the map : click on the green buttons with a black cross to zoom in, on the green button with a dash to zoom out, or on the green arrows for adjacent maps.


METAR-TAF: